Castlebar, Ireland
Current Conditions -  °F | °C
As of 1:00 PM on Friday 31 Oct 2014 (Local Time) from EIKN Reporting Station
Light Rain Light Rain  
Wind Chill: 55°   Ceiling: 400
Heat Index: 55°   Visibility: 6mi
Dew Point: 54°   Wind: 10mph
Humidity: 94%   Direction: 200°SSW
Pressure: 29.59"   Gusts: NA
Location:  53.86°N, 9.3°W
Report Text: EIKN 311200Z 20009KT 160V230 9999 -RA BKN004 BKN020 OVC070 13/12 Q1002 NOSIG
Loading
Personal Weather Stations






























Interactive Weather Map
Tropical Storm Tracking
New forecast layout! Learn more

10-Day Weather Forecast

Advertisements
Track Severe Weather on mobile